Archival Weather

NSFA McMurdo Sound

NSFA McMurdo Sound, Antarctica (NZCM)

Report from: Friday, September 23, 2022 11:55 PM UTC
Current time: Sunday, December 4, 2022 11:15 AM UTC

Current weather
Weather history
Weather forecast

Present weatherFreezing fog
Temperature-13.5°C (7.7°F)
Wind chill-24.5°C (-12.2°F)
Dew point-16.1°C (3.0°F)
Winds 18 kts (9.3 m/s, 20.7 mph) Vrb
Wind gusts 30 kts (15.4 m/s, 34.5 mph)
Winds variableWinds variable from Northeast (50°) to South-Southeast (150°)
Peak wind 30 kts (15.4 m/s, 34.5 mph) East (90°) at 18:53
Visibility0.3 mi. (0.6 km)
Clouds Ceiling: Vertical visibility 800 ft. (244 m)
Altimeter28.66 in.Hg (971 mB)
Precip. events Snow ended 11:30 PM
Relative humidity81 %
Density altitude-2,061 ft. (-628 m)
Sea-level pressure107.1 kPa (1071 mB, 31.64 in.Hg)
Max temp last 6 hours-13.3°C (8.1°F)
Min temp last 6 hours-17.7°C (0.1°F)
Remarks Fully automated report
System requires maintenance
Automated weather observing station with precipitation discriminator
Pressure rising
Flight conditions Low Instrument Meteorological Conditions
Raw dataNZCM 232355Z AUTO 11018G30KT 050V150 0550 FZFG VV008 M14/M16 A2866 RMK AO2 PK WND 09030/2353 SNE2330 SLP713 T11351161 11133 21177 52003 $
An error has occurred. This application may no longer respond until reloaded. Reload 🗙